RCSS/TSA METAR and TAF weather

Enter ICAO airport designator
Station Type Date Time Source
RCSS METAR 2019/12/08 01:00 UTC NOAA

RCSS 080100Z VRB02KT 9999 FEW015 19/11 Q1027 NOSIG RMK A3033


Station Type Date Time Source
RCSS Decoded METAR 2019/12/08 01:00 UTC NOAA

Sungshan / Taipei, Taiwan (RCSS) 25-04N 121-33E
Dec 07, 2019 - 08:00 PM EST / 2019.12.08 0100 UTC
Wind: Variable at 2 MPH (2 KT):0
Visibility: greater than 7 mile(s):0
Sky conditions: mostly clear
Temperature: 66 F (19 C)
Dew Point: 51 F (11 C)
Relative Humidity: 59%
Pressure (altimeter): 30.33 in. Hg (1027 hPa)
ob: RCSS 080100Z VRB02KT 9999 FEW015 19/11 Q1027 NOSIG RMK A3033
cycle: 1

Station Type Date Time Source
RCSS TAF 2019/12/07 18:03 UTC NOAA

TAF RCSS 071700Z 0718/0818 09005KT 9999 FEW015 BKN032 BKN060
TEMPO 0718/0724 06004KT FEW010 BKN020 BKN030
TEMPO 0804/0810 08012KT

Example: see airport list